Hancock, New York
Current Conditions -  °F | °C
As of 4:35 AM on Tuesday 21 Oct 2014 (Local Time) from KMSV Reporting Station
Overcast Overcast  
Wind Chill:   Ceiling: 5000
Heat Index:   Visibility: 7mi
Dew Point:   Wind: 5mph
Humidity: 93%   Direction: 130°SE
Pressure: 29.9"   Gusts: NA
Location:  41.95°N, 75.28°W
Report Text: KMSV 210835Z AUTO 13004KT 7SM FEW041 OVC050 07/06 A2990 RMK AO1 P0001
Loading
Personal Weather Stations






























Interactive Weather Map
Tropical Storm Tracking
New forecast layout! Learn more

10-Day Weather Forecast

Advertisements
Track Severe Weather on mobile